createdAt,value
2018-12-12T00:00:59.892Z,4.30
2018-12-12T00:03:32.066Z,5.07
2018-12-12T00:06:06.218Z,3.77
2018-12-12T00:08:46.893Z,3.60
2018-12-12T00:11:18.671Z,3.70
2018-12-12T00:13:49.922Z,4.83
2018-12-12T00:16:24.841Z,4.67
2018-12-12T00:19:06.419Z,3.93
2018-12-12T00:24:43.476Z,5.47
2018-12-12T00:27:14.776Z,3.77
2018-12-12T00:29:46.197Z,3.73
2018-12-12T00:32:18.142Z,2.67
2018-12-12T00:34:58.824Z,3.07
2018-12-12T00:37:39.802Z,3.93
2018-12-12T00:40:14.298Z,3.37
2018-12-12T00:42:45.613Z,4.27
2018-12-12T00:45:20.509Z,3.40
2018-12-12T00:47:51.814Z,4.13
2018-12-12T00:50:32.640Z,3.33
2018-12-12T00:53:10.880Z,3.00
2018-12-12T00:55:51.660Z,3.27
2018-12-12T00:58:23.381Z,3.30
2018-12-12T01:00:55.461Z,5.10
2018-12-12T01:03:27.413Z,2.83
2018-12-12T01:05:59.412Z,4.87
2018-12-12T01:08:30.781Z,4.90
2018-12-12T01:11:06.281Z,3.60
2018-12-12T01:13:42.592Z,3.50
2018-12-12T01:16:12.707Z,3.87
2018-12-12T01:18:46.701Z,2.93
2018-12-12T01:21:20.781Z,3.87
2018-12-12T01:23:52.117Z,4.33
2018-12-12T01:26:26.234Z,2.47
2018-12-12T01:28:57.662Z,3.30
2018-12-12T01:31:29.749Z,3.70
2018-12-12T01:33:58.045Z,4.83
2018-12-12T01:36:39.625Z,3.70
2018-12-12T01:39:20.454Z,2.30
2018-12-12T01:41:50.872Z,3.63
2018-12-12T01:50:35.642Z,3.70
2018-12-12T01:53:12.303Z,4.87
2018-12-12T01:58:49.111Z,2.67
2018-12-12T02:04:31.131Z,3.27
2018-12-12T02:06:59.378Z,3.80
2018-12-12T02:12:34.949Z,3.70
2018-12-12T02:21:20.521Z,3.27
2018-12-12T02:23:52.046Z,4.30
2018-12-12T02:35:45.881Z,3.30
2018-12-12T02:38:27.846Z,3.43
2018-12-12T02:44:05.943Z,4.20
2018-12-12T02:46:35.418Z,4.03
2018-12-12T02:49:16.491Z,2.90
2018-12-12T02:51:50.883Z,3.87
2018-12-12T02:54:31.708Z,3.23
2018-12-12T02:57:12.745Z,3.00
2018-12-12T02:59:49.162Z,3.57
2018-12-12T03:02:32.745Z,3.63
2018-12-12T03:05:05.143Z,4.40
2018-12-12T03:07:46.668Z,2.80
2018-12-12T03:10:16.174Z,5.10
2018-12-12T03:12:51.107Z,3.80
2018-12-12T03:15:25.964Z,4.53
2018-12-12T03:17:57.282Z,3.30
2018-12-12T03:20:38.624Z,3.23
2018-12-12T03:23:08.224Z,4.10
2018-12-12T03:28:45.740Z,3.47
2018-12-12T03:31:30.815Z,3.90
2018-12-12T03:34:00.413Z,3.67
2018-12-12T03:36:32.423Z,3.83
2018-12-12T03:42:19.829Z,3.93
2018-12-12T03:44:49.478Z,2.37
2018-12-12T03:47:27.944Z,2.57
2018-12-12T03:50:01.904Z,4.00
2018-12-12T03:52:33.426Z,4.40
2018-12-12T03:55:07.446Z,2.63
2018-12-12T04:00:54.778Z,4.17
2018-12-12T04:06:37.829Z,4.47
2018-12-12T04:09:21.150Z,3.57
2018-12-12T04:12:15.535Z,5.43
2018-12-12T04:14:56.415Z,4.33
2018-12-12T04:20:32.556Z,3.60
2018-12-12T04:26:20.386Z,3.13
2018-12-12T04:28:59.174Z,3.23
2018-12-12T04:31:39.794Z,4.10
2018-12-12T04:34:21.468Z,5.50
2018-12-12T04:36:56.381Z,3.00
2018-12-12T04:39:54.695Z,4.43
2018-12-12T04:45:46.637Z,4.37
2018-12-12T04:51:37.863Z,3.90
2018-12-12T04:57:27.966Z,3.70
2018-12-12T05:03:18.849Z,4.60
2018-12-12T05:08:53.624Z,3.23
2018-12-12T05:11:21.921Z,3.27
2018-12-12T05:14:06.588Z,3.13
2018-12-12T05:19:41.031Z,5.07
2018-12-12T05:25:19.369Z,4.93
2018-12-12T05:43:34.893Z,3.23
2018-12-12T05:58:27.869Z,4.77
2018-12-12T06:10:22.231Z,5.27
2018-12-12T06:12:52.197Z,2.77
2018-12-12T06:21:39.591Z,2.83
2018-12-12T06:30:20.583Z,4.77
2018-12-12T06:32:58.793Z,2.87
2018-12-12T06:35:27.040Z,3.63
2018-12-12T06:37:55.312Z,4.47
2018-12-12T06:40:23.615Z,5.47
2018-12-12T06:42:53.588Z,5.10
2018-12-12T06:48:28.103Z,5.37
2018-12-12T06:57:11.537Z,5.27
2018-12-12T06:59:43.186Z,4.50
2018-12-12T07:05:19.419Z,4.63
2018-12-12T07:07:56.003Z,3.73
2018-12-12T07:10:30.807Z,4.93
2018-12-12T07:13:02.890Z,4.73
2018-12-12T07:15:34.195Z,4.90
2018-12-12T07:18:15.046Z,5.00
2018-12-12T07:20:49.342Z,4.90
2018-12-12T07:23:20.693Z,3.67
2018-12-12T07:26:02.058Z,4.37
2018-12-12T07:28:44.609Z,6.23
2018-12-12T07:31:15.931Z,4.30
2018-12-12T07:33:49.934Z,4.63
2018-12-12T07:36:30.640Z,6.90
2018-12-12T07:39:17.740Z,5.73
2018-12-12T07:41:43.280Z,5.77
2018-12-12T07:44:23.952Z,4.63
2018-12-12T07:47:05.228Z,5.30
2018-12-12T07:49:46.290Z,5.93
2018-12-12T07:52:20.568Z,6.13
2018-12-12T07:55:01.430Z,5.77
2018-12-12T07:57:31.159Z,5.77
2018-12-12T08:00:11.212Z,4.83
2018-12-12T08:05:21.321Z,6.03
2018-12-12T08:08:02.062Z,7.03
2018-12-12T08:10:42.934Z,5.47
2018-12-12T08:13:17.534Z,5.23
2018-12-12T08:15:58.907Z,6.13
2018-12-12T08:18:28.837Z,5.03
2018-12-12T08:21:10.328Z,5.00
2018-12-12T08:23:41.938Z,6.27
2018-12-12T08:26:23.502Z,5.37
2018-12-12T08:29:04.617Z,4.70
2018-12-12T08:31:38.644Z,5.13
2018-12-12T08:34:13.394Z,4.57
2018-12-12T08:36:47.433Z,5.50
2018-12-12T08:39:28.346Z,5.77
2018-12-12T08:42:02.773Z,6.87
2018-12-12T08:47:43.277Z,6.07
2018-12-12T08:50:30.985Z,4.97
2018-12-12T08:53:03.157Z,7.33
2018-12-12T08:55:44.435Z,6.33
2018-12-12T08:58:25.654Z,5.23
2018-12-12T09:01:06.773Z,8.70
2018-12-12T09:03:44.845Z,6.67
2018-12-12T09:06:25.600Z,7.43
2018-12-12T09:08:55.174Z,10.60
2018-12-12T09:11:27.321Z,11.07
2018-12-12T09:13:57.462Z,11.57
2018-12-12T09:16:38.821Z,9.57
2018-12-12T09:19:19.886Z,9.50
2018-12-12T09:22:00.786Z,8.90
2018-12-12T09:24:41.874Z,8.10
2018-12-12T09:27:11.656Z,9.70
2018-12-12T09:29:46.584Z,10.53
2018-12-12T09:32:21.486Z,10.30
2018-12-12T09:34:52.779Z,10.10
2018-12-12T09:37:33.441Z,10.80
2018-12-12T09:40:14.527Z,9.67
2018-12-12T09:42:44.131Z,9.07
2018-12-12T09:45:24.781Z,11.17
2018-12-12T09:48:05.873Z,11.57
2018-12-12T09:50:37.458Z,8.70
2018-12-12T09:53:22.514Z,11.30
2018-12-12T09:56:07.549Z,8.50
2018-12-12T09:58:48.568Z,10.77
2018-12-12T10:01:33.216Z,7.80
2018-12-12T10:07:54.845Z,9.47
2018-12-12T10:10:29.502Z,8.90
2018-12-12T10:13:13.998Z,7.50
2018-12-12T10:15:52.093Z,7.37
2018-12-12T10:18:33.092Z,6.23
2018-12-12T10:21:13.922Z,7.07
2018-12-12T10:23:50.296Z,6.33
2018-12-12T10:26:20.470Z,7.00
2018-12-12T10:28:56.893Z,6.37
2018-12-12T10:31:26.821Z,8.53
2018-12-12T10:33:58.799Z,6.17
2018-12-12T10:36:42.088Z,6.93
2018-12-12T10:39:13.614Z,7.43
2018-12-12T10:41:55.027Z,8.50
2018-12-12T10:44:36.124Z,7.07
2018-12-12T10:47:10.536Z,7.50
2018-12-12T10:49:52.127Z,7.00
2018-12-12T10:52:33.111Z,5.00
2018-12-12T10:55:07.498Z,6.70
2018-12-12T10:57:41.688Z,3.97
2018-12-12T11:00:16.058Z,3.67
2018-12-12T11:02:50.230Z,2.63
2018-12-12T11:05:24.657Z,2.97
2018-12-12T11:08:03.032Z,2.40
2018-12-12T11:10:44.639Z,2.70
2018-12-12T11:13:26.298Z,3.23
2018-12-12T11:16:11.122Z,5.50
2018-12-12T11:18:56.545Z,4.40
2018-12-12T11:21:28.417Z,4.03
2018-12-12T11:24:09.513Z,4.37
2018-12-12T11:26:59.089Z,5.30
2018-12-12T11:29:44.141Z,4.23
2018-12-12T11:32:25.098Z,6.63
2018-12-12T11:35:07.777Z,5.00
2018-12-12T11:37:37.870Z,3.33
2018-12-12T11:40:12.505Z,3.00
2018-12-12T11:42:53.982Z,3.97
2018-12-12T11:45:48.360Z,3.27
2018-12-12T11:48:31.821Z,2.53
2018-12-12T11:51:16.591Z,3.43
2018-12-12T11:53:46.043Z,3.43
2018-12-12T11:56:18.178Z,3.47
2018-12-12T11:58:53.043Z,3.07
2018-12-12T12:01:33.849Z,3.53
2018-12-12T12:04:16.771Z,2.83
2018-12-12T12:06:54.276Z,2.97
2018-12-12T12:09:26.217Z,4.47
2018-12-12T12:12:02.968Z,4.33
2018-12-12T12:14:34.285Z,3.87
2018-12-12T12:17:06.155Z,3.33
2018-12-12T12:19:35.470Z,3.23
2018-12-12T12:22:06.670Z,4.63
2018-12-12T12:24:34.962Z,3.20
2018-12-12T12:27:16.107Z,3.00
2018-12-12T12:29:59.540Z,3.23
2018-12-12T12:32:53.320Z,2.83
2018-12-12T12:35:22.821Z,3.10
2018-12-12T12:37:57.598Z,3.33
2018-12-12T12:40:45.448Z,2.47
2018-12-12T12:43:26.404Z,3.43
2018-12-12T12:45:58.237Z,2.77
2018-12-12T12:48:43.387Z,2.60
2018-12-12T12:51:26.943Z,2.83
2018-12-12T12:54:11.483Z,3.13
2018-12-12T12:56:55.994Z,3.07
2018-12-12T12:59:27.676Z,2.87
2018-12-12T13:02:11.075Z,2.70
2018-12-12T13:04:55.714Z,3.20
2018-12-12T13:07:23.992Z,4.10
2018-12-12T13:10:12.025Z,2.90
2018-12-12T13:12:56.824Z,2.43
2018-12-12T13:15:40.356Z,3.07
2018-12-12T13:18:21.656Z,3.73
2018-12-12T13:21:06.989Z,2.77
2018-12-12T13:23:45.194Z,3.90
2018-12-12T13:26:28.356Z,2.87
2018-12-12T13:29:12.863Z,2.20
2018-12-12T13:31:42.617Z,2.73
2018-12-12T13:34:27.782Z,2.30
2018-12-12T13:37:10.477Z,2.60
2018-12-12T13:39:38.769Z,2.87
2018-12-12T13:42:07.033Z,2.10
2018-12-12T13:44:48.519Z,3.20
2018-12-12T13:47:36.579Z,2.33
2018-12-12T13:50:11.011Z,2.33
2018-12-12T13:52:42.363Z,2.00
2018-12-12T13:55:24.524Z,2.27
2018-12-12T13:58:06.131Z,2.93
2018-12-12T14:00:40.073Z,2.77
2018-12-12T14:03:24.623Z,2.10
2018-12-12T14:05:56.383Z,2.20
2018-12-12T14:08:37.036Z,2.83
2018-12-12T14:11:06.680Z,2.83
2018-12-12T14:13:41.433Z,2.57
2018-12-12T14:16:24.891Z,3.07
2018-12-12T14:18:59.351Z,2.30
2018-12-12T14:21:42.486Z,2.47
2018-12-12T14:24:23.362Z,2.33
2018-12-12T14:26:51.655Z,1.90
2018-12-12T14:29:19.943Z,2.47
2018-12-12T14:31:48.229Z,2.77
2018-12-12T14:34:16.536Z,3.07
2018-12-12T14:36:57.595Z,3.40
2018-12-12T14:39:25.906Z,4.60
2018-12-12T14:42:06.741Z,5.00
2018-12-12T14:44:50.058Z,4.27
2018-12-12T14:47:18.351Z,3.40
2018-12-12T14:49:46.633Z,4.10
2018-12-12T14:52:30.139Z,7.53
2018-12-12T14:55:22.202Z,3.47
2018-12-12T14:58:03.046Z,6.07
2018-12-12T15:00:46.492Z,4.53
2018-12-12T15:03:27.150Z,4.03
2018-12-12T15:06:10.617Z,4.07
2018-12-12T15:08:39.801Z,3.87
2018-12-12T15:11:20.855Z,3.97
2018-12-12T15:14:05.428Z,4.90
2018-12-12T15:16:46.956Z,3.57
2018-12-12T15:19:15.210Z,4.37
2018-12-12T15:22:00.094Z,4.73
2018-12-12T15:24:44.691Z,3.77
2018-12-12T15:27:29.224Z,3.47
2018-12-12T15:29:57.491Z,3.73
2018-12-12T15:32:25.780Z,5.13
2018-12-12T15:34:54.066Z,4.77
2018-12-12T15:37:37.503Z,3.80
2018-12-12T15:40:20.982Z,4.17
2018-12-12T15:42:49.296Z,3.00
2018-12-12T15:45:17.567Z,3.53
2018-12-12T15:47:58.798Z,3.10
2018-12-12T15:50:27.069Z,4.13
2018-12-12T15:53:08.040Z,3.83
2018-12-12T15:55:36.438Z,3.23
2018-12-12T15:58:19.863Z,4.27
2018-12-12T16:00:48.226Z,5.47
2018-12-12T16:03:16.714Z,4.90
2018-12-12T16:05:44.963Z,4.50
2018-12-12T16:08:13.251Z,4.10
2018-12-12T16:10:41.505Z,4.27
2018-12-12T16:13:09.826Z,5.33
2018-12-12T16:15:38.073Z,5.13
2018-12-12T16:18:06.369Z,6.47
2018-12-12T16:20:34.637Z,4.30
2018-12-12T16:23:02.924Z,4.03
2018-12-12T16:25:31.201Z,4.90
2018-12-12T16:27:59.488Z,4.47
2018-12-12T16:30:27.785Z,4.67
2018-12-12T16:33:08.645Z,6.43
2018-12-12T16:41:52.166Z,4.77
2018-12-12T16:47:27.045Z,5.03
2018-12-12T16:49:55.371Z,5.00
2018-12-12T16:55:31.024Z,5.57
2018-12-12T16:57:59.293Z,5.47
2018-12-12T17:00:27.614Z,5.77
2018-12-12T17:02:55.883Z,5.53
2018-12-12T17:08:32.644Z,5.90
2018-12-12T17:11:00.909Z,5.17
2018-12-12T17:13:29.200Z,6.57
2018-12-12T17:15:57.498Z,5.83
2018-12-12T17:18:25.774Z,5.60
2018-12-12T17:20:54.095Z,5.47
2018-12-12T17:23:22.351Z,5.67
2018-12-12T17:25:50.642Z,7.87
2018-12-12T17:28:18.905Z,6.80
2018-12-12T17:30:50.188Z,5.67
2018-12-12T17:39:31.287Z,5.90
2018-12-12T17:41:59.589Z,8.00
2018-12-12T17:44:27.873Z,5.90
2018-12-12T17:46:56.273Z,6.50
2018-12-12T17:49:24.558Z,5.53
2018-12-12T17:54:58.462Z,5.83
2018-12-12T17:57:26.768Z,6.13
2018-12-12T17:59:55.025Z,5.60
2018-12-12T18:02:25.209Z,5.93
2018-12-12T18:08:05.663Z,6.30
2018-12-12T18:10:36.883Z,6.00
2018-12-12T18:34:05.956Z,5.60
2018-12-12T18:36:37.934Z,5.23
2018-12-12T18:42:15.900Z,5.70
2018-12-12T18:44:56.969Z,6.03
2018-12-12T18:56:50.593Z,3.87
2018-12-12T19:05:28.319Z,6.10
2018-12-12T19:07:59.934Z,5.43
2018-12-12T19:10:28.233Z,5.77
2018-12-12T19:13:00.339Z,5.13
2018-12-12T19:15:28.626Z,6.07
2018-12-12T19:42:44.778Z,5.40
2018-12-12T19:45:13.065Z,4.20
2018-12-12T20:06:20.069Z,4.80
2018-12-12T20:08:56.800Z,4.40
2018-12-12T20:11:25.236Z,5.50
2018-12-12T20:13:56.534Z,5.47
2018-12-12T20:16:24.840Z,5.53
2018-12-12T20:22:00.129Z,4.50
2018-12-12T20:24:28.423Z,5.27
2018-12-12T20:30:17.342Z,5.00
2018-12-12T20:48:25.404Z,5.37
2018-12-12T20:54:07.496Z,4.17
2018-12-12T20:56:35.754Z,5.23
2018-12-12T21:08:22.939Z,4.40
2018-12-12T21:10:51.288Z,5.30
2018-12-12T21:13:19.565Z,5.47
2018-12-12T21:15:47.948Z,6.80
2018-12-12T21:21:22.042Z,5.70
2018-12-12T21:26:57.527Z,6.50
2018-12-12T21:29:25.810Z,4.07
2018-12-12T21:35:00.341Z,5.67
2018-12-12T21:40:49.970Z,5.10
2018-12-12T21:46:30.550Z,6.13
2018-12-12T21:52:04.952Z,5.23
2018-12-12T21:54:33.299Z,5.27
2018-12-12T21:57:09.794Z,4.47
2018-12-12T22:02:44.896Z,5.37
2018-12-12T22:05:13.166Z,4.10
2018-12-12T22:10:47.444Z,5.33
2018-12-12T22:13:15.768Z,5.47
2018-12-12T22:15:50.548Z,5.03
2018-12-12T22:18:31.424Z,5.47
2018-12-12T22:21:01.048Z,5.13
2018-12-12T22:26:43.145Z,4.97
2018-12-12T22:29:24.282Z,5.23
2018-12-12T22:32:05.608Z,4.70
2018-12-12T22:34:46.717Z,4.03
2018-12-12T22:37:16.366Z,4.57
2018-12-12T22:39:57.109Z,4.27
2018-12-12T22:42:28.760Z,4.70
2018-12-12T22:44:58.681Z,3.93
2018-12-12T22:47:30.837Z,3.83
2018-12-12T22:50:11.515Z,4.40
2018-12-12T22:52:40.957Z,5.03
2018-12-12T22:55:15.649Z,4.10
2018-12-12T22:57:49.628Z,3.80
2018-12-12T23:03:04.255Z,4.10
2018-12-12T23:05:45.829Z,5.37
2018-12-12T23:08:20.315Z,3.67
2018-12-12T23:10:54.328Z,4.00
2018-12-12T23:13:25.678Z,4.93
2018-12-12T23:16:07.202Z,3.83
2018-12-12T23:18:48.176Z,5.23
2018-12-12T23:21:29.240Z,4.60
2018-12-12T23:23:58.891Z,4.13
2018-12-12T23:26:39.682Z,4.80
2018-12-12T23:29:14.074Z,4.10
2018-12-12T23:31:55.048Z,3.87
2018-12-12T23:34:26.463Z,4.80
2018-12-12T23:37:08.004Z,4.30
2018-12-12T23:39:37.527Z,3.20
2018-12-12T23:42:19.062Z,4.53
2018-12-12T23:44:54.415Z,4.77
2018-12-12T23:47:26.084Z,5.17
2018-12-12T23:50:01.936Z,5.53
2018-12-12T23:52:31.465Z,5.53
2018-12-12T23:55:12.889Z,5.33
2018-12-12T23:57:47.272Z,4.33
